createdAt,value
2022-09-01T00:01:00.214Z,15.570679
2022-09-01T00:02:09.918Z,15.540466
2022-09-01T00:03:19.512Z,15.540466
2022-09-01T00:04:30.207Z,15.550537
2022-09-01T00:05:37.866Z,15.540466
2022-09-01T00:06:47.544Z,15.540466
2022-09-01T00:07:57.198Z,15.540466
2022-09-01T00:09:05.906Z,15.520325
2022-09-01T00:10:15.579Z,15.540466
2022-09-01T00:11:23.230Z,15.520325
2022-09-01T00:12:31.916Z,15.540466
2022-09-01T00:13:41.570Z,15.540466
2022-09-01T00:14:51.251Z,15.550537
2022-09-01T00:16:00.940Z,15.550537
2022-09-01T00:17:09.581Z,15.540466
2022-09-01T00:18:18.387Z,15.520325
2022-09-01T00:19:27.906Z,15.540466
2022-09-01T00:20:36.570Z,15.520325
2022-09-01T00:21:45.220Z,15.540466
2022-09-01T00:22:54.879Z,15.550537
2022-09-01T00:24:02.665Z,15.550537
2022-09-01T00:25:12.330Z,15.550537
2022-09-01T00:26:21.000Z,15.550537
2022-09-01T00:27:30.753Z,15.540466
2022-09-01T00:28:39.321Z,15.550537
2022-09-01T00:29:47.014Z,15.520325
2022-09-01T00:30:55.697Z,15.520325
2022-09-01T00:32:05.326Z,15.510254
2022-09-01T00:33:13.991Z,15.520325
2022-09-01T00:34:23.640Z,15.540466
2022-09-01T00:35:32.326Z,15.570679
2022-09-01T00:36:40.961Z,15.520325
2022-09-01T00:37:50.613Z,15.510254
2022-09-01T00:39:00.255Z,15.520325
2022-09-01T00:40:10.956Z,15.510254
2022-09-01T00:41:20.794Z,15.520325
2022-09-01T00:42:28.407Z,15.540466
2022-09-01T00:43:37.075Z,15.550537
2022-09-01T00:44:46.746Z,15.540466
2022-09-01T00:45:54.480Z,15.550537
2022-09-01T00:47:04.112Z,15.540466
2022-09-01T00:48:13.753Z,15.520325
2022-09-01T00:49:22.409Z,15.520325
2022-09-01T00:50:31.071Z,15.520325
2022-09-01T00:51:39.729Z,15.540466
2022-09-01T00:52:48.389Z,15.520325
2022-09-01T00:53:57.093Z,15.540466
2022-09-01T00:55:05.784Z,15.540466
2022-09-01T00:56:15.444Z,15.520325
2022-09-01T00:57:24.123Z,15.510254
2022-09-01T00:58:32.791Z,15.439758
2022-09-01T00:59:42.467Z,15.439758
2022-09-01T01:00:52.121Z,15.429688
2022-09-01T01:02:00.794Z,15.429688
2022-09-01T01:03:08.450Z,15.439758
2022-09-01T01:04:18.114Z,15.4599
2022-09-01T01:05:25.796Z,15.469971
2022-09-01T01:06:33.417Z,15.469971
2022-09-01T01:07:43.095Z,15.469971
2022-09-01T01:08:52.754Z,15.4599
2022-09-01T01:10:02.431Z,15.439758
2022-09-01T01:11:12.111Z,15.429688
2022-09-01T01:12:19.777Z,15.399475
2022-09-01T01:13:29.438Z,15.389404
2022-09-01T01:14:38.081Z,15.399475
2022-09-01T01:15:47.779Z,15.389404
2022-09-01T01:16:58.486Z,15.369263
2022-09-01T01:18:06.066Z,15.389404
2022-09-01T01:19:14.716Z,15.389404
2022-09-01T01:20:24.375Z,15.369263
2022-09-01T01:21:34.060Z,15.389404
2022-09-01T01:22:43.736Z,15.369263
2022-09-01T01:23:52.403Z,15.399475
2022-09-01T01:25:00.068Z,15.399475
2022-09-01T01:26:09.739Z,15.399475
2022-09-01T01:27:17.543Z,15.389404
2022-09-01T01:28:27.197Z,15.399475
2022-09-01T01:29:36.861Z,15.429688
2022-09-01T01:30:44.538Z,15.4599
2022-09-01T01:31:54.178Z,15.419617
2022-09-01T01:33:03.349Z,15.419617
2022-09-01T01:34:12.538Z,15.419617
2022-09-01T01:35:22.219Z,15.429688
2022-09-01T01:36:29.926Z,15.399475
2022-09-01T01:37:39.590Z,15.389404
2022-09-01T01:38:49.286Z,15.389404
2022-09-01T01:39:57.947Z,15.399475
2022-09-01T01:41:07.606Z,15.399475
2022-09-01T01:42:15.272Z,15.399475
2022-09-01T01:43:22.915Z,15.399475
2022-09-01T01:44:32.590Z,15.399475
2022-09-01T01:45:40.301Z,15.389404
2022-09-01T01:46:48.903Z,15.429688
2022-09-01T01:47:58.574Z,15.419617
2022-09-01T01:49:06.263Z,15.439758
2022-09-01T01:50:15.934Z,15.419617
2022-09-01T01:51:24.630Z,15.419617
2022-09-01T01:52:32.299Z,15.399475
2022-09-01T01:53:42.950Z,15.419617
2022-09-01T01:54:50.596Z,15.369263
2022-09-01T01:55:59.251Z,15.359192
2022-09-01T01:57:08.933Z,15.349121
2022-09-01T01:58:17.598Z,15.349121
2022-09-01T01:59:27.268Z,15.328979
2022-09-01T02:00:35.927Z,15.308838
2022-09-01T02:01:43.682Z,15.288696
2022-09-01T02:02:53.359Z,15.278625
2022-09-01T02:04:01.945Z,15.248413
2022-09-01T02:05:10.595Z,15.238342
2022-09-01T02:06:20.280Z,15.238342
2022-09-01T02:07:28.991Z,15.218201
2022-09-01T02:08:38.635Z,15.20813
2022-09-01T02:09:47.289Z,15.177917
2022-09-01T02:10:55.920Z,15.167847
2022-09-01T02:12:05.576Z,15.177917
2022-09-01T02:13:14.243Z,15.167847
2022-09-01T02:14:22.893Z,15.147705
2022-09-01T02:15:32.575Z,15.147705
2022-09-01T02:16:41.284Z,15.147705
2022-09-01T02:17:50.872Z,15.137634
2022-09-01T02:18:59.552Z,15.137634
2022-09-01T02:20:08.201Z,15.107422
2022-09-01T02:21:18.635Z,15.107422
2022-09-01T02:22:26.559Z,15.137634
2022-09-01T02:23:35.212Z,15.107422
2022-09-01T02:24:44.884Z,15.107422
2022-09-01T02:26:14.922Z,15.097351
2022-09-01T02:27:04.177Z,15.08728
2022-09-01T02:28:13.829Z,15.067139
2022-09-01T02:29:21.482Z,15.057068
2022-09-01T02:30:29.274Z,15.036926
2022-09-01T02:31:36.903Z,15.036926
2022-09-01T02:32:45.554Z,15.036926
2022-09-01T02:33:55.213Z,15.016785
2022-09-01T02:35:03.899Z,15.026855
2022-09-01T02:36:13.592Z,15.016785
2022-09-01T02:37:22.277Z,14.986572
2022-09-01T02:38:28.937Z,14.95636
2022-09-01T02:39:39.613Z,14.936218
2022-09-01T02:40:47.324Z,14.906006
2022-09-01T02:41:56.055Z,14.916077
2022-09-01T02:43:05.716Z,14.875793
2022-09-01T02:44:14.382Z,14.906006
2022-09-01T02:45:24.067Z,14.855652
2022-09-01T02:46:32.751Z,14.855652
2022-09-01T02:47:42.424Z,14.83551
2022-09-01T02:48:52.146Z,14.845581
2022-09-01T02:49:59.816Z,14.83551
2022-09-01T02:51:09.478Z,14.83551
2022-09-01T02:52:19.128Z,14.805298
2022-09-01T02:53:27.838Z,14.805298
2022-09-01T02:54:37.542Z,14.775085
2022-09-01T02:55:47.213Z,14.785156
2022-09-01T02:56:54.897Z,14.765015
2022-09-01T02:58:04.519Z,14.724731
2022-09-01T02:59:14.191Z,14.694519
2022-09-01T03:00:22.850Z,14.684448
2022-09-01T03:01:30.572Z,14.654236
2022-09-01T03:02:39.204Z,14.634094
2022-09-01T03:03:48.859Z,14.654236
2022-09-01T03:04:58.592Z,14.634094
2022-09-01T03:06:08.209Z,14.624023
2022-09-01T03:07:16.854Z,14.624023
2022-09-01T03:08:25.515Z,14.58374
2022-09-01T03:09:35.224Z,14.58374
2022-09-01T03:10:44.889Z,14.58374
2022-09-01T03:11:53.540Z,14.593811
2022-09-01T03:13:03.213Z,14.543457
2022-09-01T03:14:10.863Z,14.533386
2022-09-01T03:15:20.506Z,14.533386
2022-09-01T03:16:28.221Z,14.483032
2022-09-01T03:17:36.850Z,14.483032
2022-09-01T03:18:46.508Z,14.45282
2022-09-01T03:19:55.176Z,14.45282
2022-09-01T03:21:03.853Z,14.45282
2022-09-01T03:22:13.581Z,14.442749
2022-09-01T03:23:22.231Z,14.432678
2022-09-01T03:24:31.912Z,14.402466
2022-09-01T03:25:41.624Z,14.372253
2022-09-01T03:26:50.055Z,14.372253
2022-09-01T03:27:58.957Z,14.372253
2022-09-01T03:29:08.612Z,14.362183
2022-09-01T03:30:18.271Z,14.372253
2022-09-01T03:31:29.114Z,14.402466
2022-09-01T03:32:36.625Z,14.412537
2022-09-01T03:33:46.455Z,14.412537
2022-09-01T03:34:56.127Z,14.432678
2022-09-01T03:36:03.777Z,14.412537
2022-09-01T03:37:14.443Z,14.442749
2022-09-01T03:38:24.130Z,14.412537
2022-09-01T03:39:32.779Z,14.442749
2022-09-01T03:40:42.480Z,14.432678
2022-09-01T03:41:50.099Z,14.442749
2022-09-01T03:42:59.752Z,14.412537
2022-09-01T03:44:07.410Z,14.432678
2022-09-01T03:45:15.200Z,14.432678
2022-09-01T03:46:24.853Z,14.432678
2022-09-01T03:47:35.493Z,14.432678
2022-09-01T03:48:44.162Z,14.412537
2022-09-01T03:49:53.848Z,14.372253
2022-09-01T03:51:02.579Z,14.372253
2022-09-01T03:52:12.227Z,14.352112
2022-09-01T03:53:20.893Z,14.362183
2022-09-01T03:54:28.561Z,14.372253
2022-09-01T03:55:38.213Z,14.362183
2022-09-01T03:56:45.895Z,14.352112
2022-09-01T03:57:54.568Z,14.352112
2022-09-01T03:59:04.228Z,14.33197
2022-09-01T04:00:13.876Z,14.321899
2022-09-01T04:01:23.638Z,14.301758
2022-09-01T04:02:32.287Z,14.301758
2022-09-01T04:03:41.856Z,14.281616
2022-09-01T04:04:51.513Z,14.281616
2022-09-01T04:06:00.175Z,14.261475
2022-09-01T04:07:08.849Z,14.261475
2022-09-01T04:08:19.725Z,14.251404
2022-09-01T04:09:27.266Z,14.231262
2022-09-01T04:10:36.938Z,14.221191
2022-09-01T04:11:46.579Z,14.221191
2022-09-01T04:12:54.236Z,14.20105
2022-09-01T04:14:03.916Z,14.180908
2022-09-01T04:15:11.585Z,14.150696
2022-09-01T04:16:20.289Z,14.140625
2022-09-01T04:17:30.603Z,14.150696
2022-09-01T04:18:37.582Z,14.140625
2022-09-01T04:19:47.294Z,14.120483
2022-09-01T04:20:56.959Z,14.100342
2022-09-01T04:22:05.607Z,14.0802
2022-09-01T04:23:15.293Z,14.049988
2022-09-01T04:24:23.987Z,14.049988
2022-09-01T04:25:32.664Z,14.029846
2022-09-01T04:26:42.333Z,14.029846
2022-09-01T04:27:51.000Z,13.999634
2022-09-01T04:29:00.674Z,13.989563
2022-09-01T04:30:09.351Z,13.989563
2022-09-01T04:31:17.107Z,13.969421
2022-09-01T04:32:26.726Z,13.989563
2022-09-01T04:33:34.390Z,13.999634
2022-09-01T04:34:43.104Z,13.999634
2022-09-01T04:35:52.778Z,13.999634
2022-09-01T04:37:00.587Z,13.989563
2022-09-01T04:38:10.247Z,13.989563
2022-09-01T04:39:18.909Z,13.989563
2022-09-01T04:40:27.721Z,13.989563
2022-09-01T04:41:37.513Z,13.999634
2022-09-01T04:42:46.336Z,13.969421
2022-09-01T04:43:56.091Z,13.989563
2022-09-01T04:45:08.991Z,13.999634
2022-09-01T04:46:16.441Z,13.989563
2022-09-01T04:47:26.035Z,14.029846
2022-09-01T04:48:35.736Z,14.039917
2022-09-01T04:49:44.379Z,14.039917
2022-09-01T04:50:54.037Z,14.070129
2022-09-01T04:52:03.699Z,14.0802
2022-09-01T04:53:12.412Z,14.110413
2022-09-01T04:54:22.107Z,14.120483
2022-09-01T04:55:30.780Z,14.120483
2022-09-01T04:56:40.444Z,14.120483
2022-09-01T04:57:48.112Z,14.140625
2022-09-01T04:58:57.788Z,14.150696
2022-09-01T05:00:06.474Z,14.120483
2022-09-01T05:01:15.195Z,14.150696
2022-09-01T05:02:24.816Z,14.140625
2022-09-01T05:03:33.453Z,14.150696
2022-09-01T05:04:42.103Z,14.170837
2022-09-01T05:05:51.818Z,14.180908
2022-09-01T05:07:00.493Z,14.180908
2022-09-01T05:08:10.175Z,14.180908
2022-09-01T05:09:19.854Z,14.20105
2022-09-01T05:10:29.526Z,14.231262
2022-09-01T05:11:39.215Z,14.261475
2022-09-01T05:12:46.869Z,14.291687
2022-09-01T05:13:55.514Z,14.301758
2022-09-01T05:15:05.193Z,14.291687
2022-09-01T05:16:13.894Z,14.352112
2022-09-01T05:17:23.535Z,14.372253
2022-09-01T05:18:33.225Z,14.412537
2022-09-01T05:19:40.891Z,14.533386
2022-09-01T05:20:50.557Z,14.593811
2022-09-01T05:21:58.234Z,14.503174
2022-09-01T05:23:06.908Z,14.442749
2022-09-01T05:24:16.572Z,14.402466
2022-09-01T05:25:24.225Z,14.432678
2022-09-01T05:26:33.919Z,14.412537
2022-09-01T05:27:42.572Z,14.412537
2022-09-01T05:28:50.294Z,14.442749
2022-09-01T05:29:59.970Z,14.45282
2022-09-01T05:31:08.703Z,14.33197
2022-09-01T05:32:17.404Z,14.352112
2022-09-01T05:33:27.077Z,14.321899
2022-09-01T05:34:35.767Z,14.352112
2022-09-01T05:35:45.436Z,14.321899
2022-09-01T05:36:54.117Z,14.301758
2022-09-01T05:38:02.790Z,14.291687
2022-09-01T05:39:12.467Z,14.281616
2022-09-01T05:40:21.300Z,14.301758
2022-09-01T05:41:29.949Z,14.33197
2022-09-01T05:42:39.614Z,14.33197
2022-09-01T05:43:49.302Z,14.301758
2022-09-01T05:44:59.956Z,14.261475
2022-09-01T05:46:09.661Z,14.352112
2022-09-01T05:47:20.715Z,14.33197
2022-09-01T05:48:27.985Z,14.352112
2022-09-01T05:49:37.646Z,14.362183
2022-09-01T05:50:46.337Z,14.362183
2022-09-01T05:51:56.150Z,14.261475
2022-09-01T05:53:05.816Z,14.261475
2022-09-01T05:54:15.453Z,14.281616
2022-09-01T05:55:24.116Z,14.321899
2022-09-01T05:56:32.778Z,14.352112
2022-09-01T05:57:43.438Z,14.412537
2022-09-01T06:00:01.747Z,14.45282
2022-09-01T06:01:11.432Z,14.483032
2022-09-01T06:02:19.178Z,14.513245
2022-09-01T06:03:28.807Z,14.58374
2022-09-01T06:04:39.405Z,14.603882
2022-09-01T06:05:49.090Z,14.593811
2022-09-01T06:07:07.661Z,14.553528
2022-09-01T06:08:09.396Z,14.603882
2022-09-01T06:09:18.125Z,14.624023
2022-09-01T06:10:27.793Z,14.553528
2022-09-01T06:11:35.460Z,14.58374
2022-09-01T06:12:45.131Z,14.634094
2022-09-01T06:13:55.772Z,14.654236
2022-09-01T06:15:04.456Z,14.664307
2022-09-01T06:16:15.195Z,14.684448
2022-09-01T06:17:22.810Z,14.664307
2022-09-01T06:18:31.480Z,14.664307
2022-09-01T06:19:40.158Z,14.684448
2022-09-01T06:20:49.892Z,14.634094
2022-09-01T06:21:59.552Z,14.654236
2022-09-01T06:23:08.219Z,14.684448
2022-09-01T06:24:17.888Z,14.694519
2022-09-01T06:25:27.563Z,14.734802
2022-09-01T06:26:37.360Z,14.815369
2022-09-01T06:27:46.038Z,14.906006
2022-09-01T06:28:55.698Z,14.95636
2022-09-01T06:30:05.392Z,14.966431
2022-09-01T06:31:15.088Z,14.966431
2022-09-01T06:32:23.753Z,14.95636
2022-09-01T06:33:33.533Z,14.855652
2022-09-01T06:34:42.213Z,14.815369
2022-09-01T06:35:49.876Z,14.815369
2022-09-01T06:36:58.544Z,14.845581
2022-09-01T06:38:08.244Z,14.845581
2022-09-01T06:39:16.913Z,14.906006
2022-09-01T06:40:26.683Z,14.936218
2022-09-01T06:41:35.275Z,15.016785
2022-09-01T06:42:42.936Z,15.026855
2022-09-01T06:43:52.736Z,14.986572
2022-09-01T06:45:01.426Z,15.036926
2022-09-01T06:46:10.102Z,15.097351
2022-09-01T06:47:19.751Z,15.026855
2022-09-01T06:48:27.438Z,15.036926
2022-09-01T06:49:37.130Z,15.067139
2022-09-01T06:51:56.456Z,15.147705
2022-09-01T06:53:36.027Z,15.147705
2022-09-01T06:54:16.744Z,15.137634
2022-09-01T06:55:27.528Z,15.137634
2022-09-01T06:56:36.837Z,15.147705
2022-09-01T06:58:55.496Z,15.177917
2022-09-01T07:00:04.194Z,15.20813
2022-09-01T07:01:14.360Z,15.248413
2022-09-01T07:02:22.246Z,15.278625
2022-09-01T07:03:31.203Z,15.248413
2022-09-01T07:04:40.865Z,15.308838
2022-09-01T07:06:03.873Z,15.369263
2022-09-01T07:06:59.874Z,15.469971
2022-09-01T07:08:09.823Z,15.520325
2022-09-01T07:09:20.673Z,15.540466
2022-09-01T07:10:28.166Z,15.520325
2022-09-01T07:14:15.453Z,15.671387
2022-09-01T07:16:41.787Z,15.731812
2022-09-01T07:17:31.069Z,15.762024
2022-09-01T07:18:39.772Z,15.772095
2022-09-01T07:19:50.395Z,15.83252
2022-09-01T07:21:36.001Z,15.913086
2022-09-01T07:22:35.115Z,16.003723
2022-09-01T07:23:22.384Z,16.044006
2022-09-01T07:24:32.071Z,16.124573
2022-09-01T07:26:02.147Z,16.134644
2022-09-01T07:26:50.368Z,16.195068
2022-09-01T07:28:00.422Z,16.255493
2022-09-01T07:29:09.689Z,16.315918
2022-09-01T07:30:18.495Z,16.376343
2022-09-01T07:32:47.155Z,16.416626
2022-09-01T07:33:53.397Z,16.456909
2022-09-01T07:35:00.188Z,16.456909
2022-09-01T07:36:25.596Z,16.426697
2022-09-01T07:39:48.907Z,16.386414
2022-09-01T07:43:12.564Z,16.507263
2022-09-01T07:44:21.231Z,16.567688
2022-09-01T07:45:30.905Z,16.678467
2022-09-01T07:46:40.617Z,16.738892
2022-09-01T07:47:52.912Z,16.789246
2022-09-01T07:49:03.412Z,16.900024
2022-09-01T07:50:24.972Z,16.990662
2022-09-01T07:51:38.281Z,17.121582
2022-09-01T07:52:32.857Z,17.262573
2022-09-01T07:53:42.519Z,17.484131
2022-09-01T07:54:52.189Z,17.645264
2022-09-01T07:55:59.853Z,17.776184
2022-09-01T07:57:09.511Z,17.937317
2022-09-01T07:58:18.193Z,18.068237
2022-09-01T07:59:26.027Z,18.078308
2022-09-01T08:00:35.680Z,18.148804
2022-09-01T08:01:44.444Z,17.9776
2022-09-01T08:02:57.063Z,17.695618
2022-09-01T08:04:03.698Z,17.715759
2022-09-01T08:05:13.441Z,17.665405
2022-09-01T08:06:23.116Z,17.796326
2022-09-01T08:07:32.992Z,18.048096
2022-09-01T08:08:43.406Z,18.289795
2022-09-01T08:09:55.930Z,18.410645
2022-09-01T08:11:05.147Z,18.561707
2022-09-01T08:12:12.454Z,18.833618
2022-09-01T08:13:23.121Z,19.065247
2022-09-01T08:14:33.672Z,19.155884
2022-09-01T08:16:06.276Z,19.256592
2022-09-01T08:16:52.449Z,19.437866
2022-09-01T08:17:59.843Z,19.689636
2022-09-01T08:19:16.300Z,19.921265
2022-09-01T08:20:19.134Z,20.102539
2022-09-01T08:21:27.830Z,20.404663
2022-09-01T08:22:37.565Z,20.777283
2022-09-01T08:23:47.227Z,21.089478
2022-09-01T08:24:56.902Z,21.24054
2022-09-01T08:26:05.583Z,21.361389
2022-09-01T08:27:14.258Z,21.462097
2022-09-01T08:28:27.330Z,21.512451
2022-09-01T08:29:32.639Z,21.069336
2022-09-01T08:30:42.314Z,20.958557
2022-09-01T08:31:53.012Z,20.958557
2022-09-01T08:33:10.084Z,20.948486
2022-09-01T08:34:11.348Z,20.877991
2022-09-01T08:35:21.015Z,20.666504
2022-09-01T08:36:31.672Z,20.646362
2022-09-01T08:37:41.354Z,20.596008
2022-09-01T08:38:49.021Z,20.575867
2022-09-01T08:39:57.713Z,20.686646
2022-09-01T08:41:07.393Z,20.767212
2022-09-01T08:42:16.071Z,20.898132
2022-09-01T08:43:25.739Z,21.11969
2022-09-01T08:44:35.453Z,21.170044
2022-09-01T08:45:44.165Z,21.059265
2022-09-01T08:46:53.863Z,21.069336
2022-09-01T08:48:36.961Z,21.220398
2022-09-01T08:49:28.962Z,21.37146
2022-09-01T08:50:23.962Z,21.431885
2022-09-01T08:51:31.681Z,21.50238
2022-09-01T08:52:41.429Z,21.542664
2022-09-01T08:53:50.019Z,21.522522
2022-09-01T08:54:59.786Z,21.421814
2022-09-01T08:56:08.587Z,21.401672
2022-09-01T08:57:17.106Z,21.401672
2022-09-01T08:58:26.796Z,21.50238
2022-09-01T08:59:36.495Z,21.552734
2022-09-01T09:00:45.956Z,21.552734
2022-09-01T09:01:55.839Z,21.149902
2022-09-01T09:03:03.578Z,21.089478
2022-09-01T09:04:13.181Z,21.210327
2022-09-01T09:05:22.864Z,21.270752
2022-09-01T09:06:30.616Z,21.210327
2022-09-01T09:07:40.296Z,21.180115
2022-09-01T09:08:50.001Z,21.300964
2022-09-01T09:09:58.662Z,21.270752
2022-09-01T09:11:08.341Z,21.351318
2022-09-01T09:12:17.002Z,21.50238
2022-09-01T09:13:26.661Z,21.603088
2022-09-01T09:14:36.398Z,21.582947
2022-09-01T09:15:44.141Z,21.512451
2022-09-01T09:16:53.972Z,21.482239
2022-09-01T09:18:03.434Z,21.482239
2022-09-01T09:19:14.071Z,21.512451
2022-09-01T09:20:23.841Z,21.542664
2022-09-01T09:21:31.496Z,21.613159
2022-09-01T09:22:41.169Z,21.663513
2022-09-01T09:23:50.858Z,21.75415
2022-09-01T09:24:59.559Z,21.774292
2022-09-01T09:26:09.260Z,21.885071
2022-09-01T09:27:19.898Z,21.985779
2022-09-01T09:28:28.571Z,21.915283
2022-09-01T09:29:38.285Z,21.905212
2022-09-01T09:30:48.690Z,21.663513
2022-09-01T09:31:58.623Z,21.572876
2022-09-01T09:33:37.502Z,21.300964
2022-09-01T09:34:19.926Z,21.170044
2022-09-01T09:35:29.599Z,21.059265
2022-09-01T09:36:37.270Z,20.99884
2022-09-01T09:37:47.102Z,21.029053
2022-09-01T09:38:57.636Z,21.109619
2022-09-01T09:40:06.951Z,21.149902
2022-09-01T09:41:19.814Z,21.290894
2022-09-01T09:42:29.889Z,21.220398
2022-09-01T09:43:37.290Z,21.11969
2022-09-01T09:44:48.199Z,21.200256
2022-09-01T09:45:58.668Z,21.401672
2022-09-01T09:47:17.372Z,21.482239
2022-09-01T09:48:17.880Z,21.582947
2022-09-01T09:49:34.421Z,21.885071
2022-09-01T09:50:38.257Z,22.297974
2022-09-01T09:51:47.908Z,22.549744
2022-09-01T09:52:58.587Z,22.731018
2022-09-01T09:54:07.265Z,22.962646
2022-09-01T09:55:17.067Z,23.093567
2022-09-01T09:56:25.723Z,23.174133
2022-09-01T09:57:36.375Z,23.153992
2022-09-01T09:58:46.094Z,23.123779
2022-09-01T09:59:59.033Z,23.13385
2022-09-01T10:01:05.122Z,23.103638
2022-09-01T10:02:13.439Z,23.284912
2022-09-01T10:03:23.276Z,23.244629
2022-09-01T10:04:32.805Z,23.274841
2022-09-01T10:05:41.717Z,23.274841
2022-09-01T10:06:50.145Z,23.587036
2022-09-01T10:07:59.858Z,23.858948
2022-09-01T10:09:08.519Z,24.130859
2022-09-01T10:10:17.232Z,24.503479
2022-09-01T10:11:30.094Z,24.634399
2022-09-01T10:12:36.597Z,24.503479
2022-09-01T10:13:47.245Z,24.362488
2022-09-01T10:14:56.968Z,24.181213
2022-09-01T10:16:08.061Z,24.060364
2022-09-01T10:17:18.291Z,24.26178
2022-09-01T10:18:29.564Z,24.473267
2022-09-01T10:19:36.649Z,24.533691
2022-09-01T10:20:46.323Z,24.553833
2022-09-01T10:21:54.990Z,24.533691
2022-09-01T10:23:04.660Z,24.533691
2022-09-01T10:24:17.414Z,24.453125
2022-09-01T10:25:25.997Z,24.382629
2022-09-01T10:26:35.653Z,24.432983
2022-09-01T10:27:43.322Z,23.647461
2022-09-01T10:28:51.983Z,23.587036
2022-09-01T10:31:12.354Z,23.798523
2022-09-01T10:32:34.897Z,23.919373
2022-09-01T10:33:32.641Z,24.231567
2022-09-01T10:34:42.407Z,24.231567
2022-09-01T10:35:51.997Z,24.161072
2022-09-01T10:37:00.644Z,23.989868
2022-09-01T10:38:19.153Z,23.798523
2022-09-01T10:39:21.962Z,23.546753
2022-09-01T10:40:31.553Z,23.033142
2022-09-01T10:41:41.302Z,22.88208
2022-09-01T10:42:52.045Z,22.851868
2022-09-01T10:44:02.645Z,22.76123
2022-09-01T10:45:12.316Z,22.801514
2022-09-01T10:46:24.693Z,22.942505
2022-09-01T10:47:30.676Z,23.13385
2022-09-01T10:48:48.280Z,23.234558
2022-09-01T10:49:49.945Z,23.2547
2022-09-01T10:51:00.808Z,23.466187
2022-09-01T10:52:13.137Z,23.75824
2022-09-01T10:53:19.001Z,23.949585
2022-09-01T10:54:27.643Z,24.171143
2022-09-01T10:55:38.311Z,24.382629
2022-09-01T10:56:51.202Z,24.614258
2022-09-01T10:58:07.754Z,24.684753
2022-09-01T11:01:47.656Z,24.130859
2022-09-01T11:02:46.472Z,24.231567
2022-09-01T11:03:51.632Z,24.362488
2022-09-01T11:05:00.283Z,23.778381
2022-09-01T11:06:13.094Z,23.687744
2022-09-01T11:07:26.890Z,23.647461
2022-09-01T11:08:30.223Z,23.858948
2022-09-01T11:09:39.684Z,23.627319
2022-09-01T11:10:49.335Z,23.728027
2022-09-01T11:11:58.032Z,24.030151
2022-09-01T11:13:06.727Z,24.422913
2022-09-01T11:14:15.424Z,24.694824
2022-09-01T11:15:26.716Z,24.060364
2022-09-01T11:16:50.475Z,23.989868
2022-09-01T11:17:45.422Z,23.476257
2022-09-01T11:18:55.104Z,23.13385
2022-09-01T11:20:02.778Z,23.2547
2022-09-01T11:21:12.871Z,23.425903
2022-09-01T11:22:22.178Z,23.476257
2022-09-01T11:23:30.896Z,23.395691
2022-09-01T11:24:41.574Z,23.355408
2022-09-01T11:26:18.939Z,23.315125
2022-09-01T11:27:00.871Z,23.234558
2022-09-01T11:28:10.576Z,23.425903
2022-09-01T11:29:19.254Z,23.365479
2022-09-01T11:30:28.947Z,23.38562
2022-09-01T11:31:37.632Z,23.38562
2022-09-01T11:32:46.968Z,23.284912
2022-09-01T11:33:54.956Z,23.2547
2022-09-01T11:35:02.640Z,23.103638
2022-09-01T11:36:12.333Z,23.023071
2022-09-01T11:37:22.057Z,23.00293
2022-09-01T11:38:31.749Z,23.00293
2022-09-01T11:39:41.484Z,22.811584
2022-09-01T11:40:51.226Z,22.932434
2022-09-01T11:42:03.452Z,23.00293
2022-09-01T11:43:10.643Z,23.123779
2022-09-01T11:44:19.141Z,23.395691
2022-09-01T11:45:27.848Z,23.456116
2022-09-01T11:46:37.497Z,23.798523
2022-09-01T11:47:46.182Z,24.171143
2022-09-01T11:48:55.855Z,23.929443
2022-09-01T11:50:05.561Z,24.080505
2022-09-01T11:51:14.547Z,24.503479
2022-09-01T11:52:23.890Z,24.946594
2022-09-01T11:53:31.552Z,24.946594
2022-09-01T11:54:40.206Z,24.855957
2022-09-01T11:55:49.881Z,24.694824
2022-09-01T11:56:57.554Z,24.614258
2022-09-01T11:58:07.269Z,24.51355
2022-09-01T11:59:17.004Z,24.704895
2022-09-01T12:00:24.669Z,25.057373
2022-09-01T12:01:34.336Z,24.916382
2022-09-01T12:02:43.205Z,25.077515
2022-09-01T12:03:51.819Z,25.379639
2022-09-01T12:05:01.503Z,25.661621
2022-09-01T12:06:09.191Z,26.064453
2022-09-01T12:07:18.890Z,26.376648
2022-09-01T12:08:28.785Z,26.52771
2022-09-01T12:09:36.467Z,26.507568
2022-09-01T12:10:46.164Z,26.578064
2022-09-01T12:11:55.857Z,26.77948
2022-09-01T12:13:05.546Z,27.1521
2022-09-01T12:14:15.251Z,27.182312
2022-09-01T12:15:24.926Z,26.829834
2022-09-01T12:16:33.607Z,26.578064
2022-09-01T12:17:43.310Z,26.205444
2022-09-01T12:18:51.983Z,24.956665
2022-09-01T12:20:01.679Z,24.654541
2022-09-01T12:21:11.345Z,24.382629
2022-09-01T12:22:19.031Z,24.291992
2022-09-01T12:23:28.748Z,24.322205
2022-09-01T12:24:36.452Z,24.684753
2022-09-01T12:25:45.132Z,25.158081
2022-09-01T12:26:54.822Z,25.540771
2022-09-01T12:28:03.499Z,25.319214
2022-09-01T12:29:13.230Z,25.168152
2022-09-01T12:30:20.902Z,25.007019
2022-09-01T12:31:30.626Z,24.956665
2022-09-01T12:32:40.310Z,24.855957
2022-09-01T12:33:49.013Z,25.037231
2022-09-01T12:34:58.707Z,25.278931
2022-09-01T12:36:09.439Z,25.349426
2022-09-01T12:37:18.103Z,25.65155
2022-09-01T12:38:27.780Z,25.581055
2022-09-01T12:39:36.466Z,25.510559
2022-09-01T12:40:46.206Z,25.409851
2022-09-01T12:41:55.834Z,25.178223
2022-09-01T12:43:04.513Z,25.258789
2022-09-01T12:44:13.195Z,25.581055
2022-09-01T12:45:22.880Z,26.15509
2022-09-01T12:46:33.380Z,26.598206
2022-09-01T12:47:42.232Z,27.03125
2022-09-01T12:48:50.927Z,27.1521
2022-09-01T12:50:00.847Z,27.323303
2022-09-01T12:51:09.335Z,27.776489
2022-09-01T12:52:19.782Z,27.867126
2022-09-01T12:53:26.670Z,27.544861
2022-09-01T12:54:35.373Z,27.272949
2022-09-01T12:55:48.203Z,27.03125
2022-09-01T12:56:53.706Z,27.071533
2022-09-01T12:58:02.394Z,26.839905
2022-09-01T12:59:13.790Z,26.517639
2022-09-01T13:00:22.748Z,26.356506
2022-09-01T13:01:31.573Z,26.14502
2022-09-01T13:02:41.182Z,25.782471
2022-09-01T13:03:48.757Z,25.661621
2022-09-01T13:04:57.516Z,25.591125
2022-09-01T13:06:08.234Z,25.621338
2022-09-01T13:07:18.045Z,25.601196
2022-09-01T13:08:27.642Z,25.621338
2022-09-01T13:09:36.308Z,25.460205
2022-09-01T13:10:43.980Z,25.349426
2022-09-01T13:12:09.177Z,25.258789
2022-09-01T13:13:04.492Z,25.319214
2022-09-01T13:14:14.168Z,25.258789
2022-09-01T13:15:23.865Z,25.289001
2022-09-01T13:16:31.544Z,25.39978
2022-09-01T13:17:41.185Z,25.137939
2022-09-01T13:20:01.497Z,24.986877
2022-09-01T13:21:11.205Z,24.986877
2022-09-01T13:22:19.890Z,24.976807
2022-09-01T13:23:28.558Z,24.926453
2022-09-01T13:24:38.227Z,24.956665
2022-09-01T13:25:47.899Z,25.127869
2022-09-01T13:28:08.216Z,25.228577
2022-09-01T13:29:15.926Z,25.319214
2022-09-01T13:30:25.608Z,25.631409
2022-09-01T13:31:34.260Z,26.004028